Time;durP1;ratioP1;P1;durP2;ratioP2;P2;SDS_P1;SDS_P2;PMS_P1;PMS_P2;Temp;Humidity;BMP_temperature;BMP_pressure;BME280_temperature;BME280_humidity;BME280_pressure;Samples;Min_cycle;Max_cycle;Signal;HPM_P1;HPM_P2
2022/07/07 00:02:01;;;;;;;7.18;2.00;;;19.70;80.70;;;;;;5139710;27;45540;-66
2022/07/07 00:04:27;;;;;;;3.75;1.70;;;19.70;81.10;;;;;;5139685;27;46560;-65
2022/07/07 00:06:54;;;;;;;6.35;1.70;;;19.70;81.20;;;;;;5131768;27;45527;-65
2022/07/07 00:09:21;;;;;;;7.43;1.80;;;19.70;82.20;;;;;;5127592;27;45294;-65
2022/07/07 00:11:48;;;;;;;5.72;1.75;;;19.70;81.90;;;;;;5138413;27;45550;-65
2022/07/07 00:14:14;;;;;;;3.92;1.40;;;19.60;81.80;;;;;;5134345;27;46065;-66
2022/07/07 00:16:42;;;;;;;2.78;1.40;;;19.70;82.00;;;;;;5129072;27;45459;-66
2022/07/07 00:19:09;;;;;;;3.92;1.65;;;19.70;81.90;;;;;;5130806;27;45397;-66
2022/07/07 00:21:36;;;;;;;2.85;1.42;;;19.70;81.70;;;;;;5128977;27;45265;-66
2022/07/07 00:24:03;;;;;;;3.38;1.30;;;19.70;82.10;;;;;;5131361;27;45529;-65
2022/07/07 00:26:31;;;;;;;5.63;1.40;;;19.60;82.00;;;;;;5130884;27;45348;-66
2022/07/07 00:28:58;;;;;;;8.65;1.40;;;19.60;82.20;;;;;;5133255;27;45351;-66
2022/07/07 00:31:25;;;;;;;4.55;1.30;;;19.70;82.20;;;;;;5147194;27;45224;-66
2022/07/07 00:33:53;;;;;;;2.25;1.20;;;19.60;82.20;;;;;;5146445;27;48045;-67
2022/07/07 00:36:20;;;;;;;2.67;1.10;;;19.70;82.60;;;;;;5138370;27;45592;-65
2022/07/07 00:38:47;;;;;;;3.05;1.13;;;19.70;82.70;;;;;;5146810;27;45586;-66
2022/07/07 00:41:14;;;;;;;5.47;1.38;;;19.60;83.30;;;;;;5144223;27;45277;-65
2022/07/07 00:43:42;;;;;;;2.95;1.10;;;19.60;83.60;;;;;;5141734;27;47417;-66
2022/07/07 00:46:09;;;;;;;2.05;1.05;;;19.60;85.10;;;;;;5128368;27;45538;-66
2022/07/07 00:48:38;;;;;;;2.13;1.10;;;19.60;84.60;;;;;;5136490;27;45395;-66
2022/07/07 00:51:08;;;;;;;2.95;1.25;;;19.60;85.40;;;;;;5137388;27;45445;-66
2022/07/07 00:53:34;;;;;;;6.05;1.23;;;19.60;85.90;;;;;;5139525;27;46105;-66
2022/07/07 00:56:01;;;;;;;2.00;1.23;;;19.60;86.40;;;;;;5145175;27;45284;-66
2022/07/07 00:58:28;;;;;;;5.70;1.42;;;19.50;86.80;;;;;;5141104;27;45374;-67
2022/07/07 01:00:55;;;;;;;3.33;1.20;;;19.50;87.30;;;;;;5139628;27;45466;-66
2022/07/07 01:03:22;;;;;;;3.78;1.40;;;19.50;88.00;;;;;;5135116;27;46579;-65
2022/07/07 01:05:49;;;;;;;1.77;1.27;;;19.50;88.20;;;;;;5146208;27;45261;-65
2022/07/07 01:08:18;;;;;;;3.17;1.20;;;19.50;88.70;;;;;;5136320;27;45539;-65
2022/07/07 01:10:46;;;;;;;2.90;1.20;;;19.50;88.50;;;;;;5134806;27;45699;-66
2022/07/07 01:13:13;;;;;;;2.58;1.23;;;19.50;88.70;;;;;;5135801;27;46008;-66
2022/07/07 01:15:40;;;;;;;2.88;1.20;;;19.50;88.50;;;;;;5140934;27;45367;-66
2022/07/07 01:18:07;;;;;;;3.88;1.40;;;19.60;88.50;;;;;;5145431;27;45354;-66
2022/07/07 01:20:34;;;;;;;4.13;1.42;;;19.60;88.00;;;;;;5136867;27;45454;-65
2022/07/07 01:23:03;;;;;;;4.07;1.42;;;19.70;87.90;;;;;;5132057;27;47481;-66
2022/07/07 01:25:30;;;;;;;3.78;1.35;;;19.70;87.40;;;;;;5132379;27;45335;-66
2022/07/07 01:27:57;;;;;;;3.40;1.27;;;19.70;86.50;;;;;;5139636;27;45725;-66
2022/07/07 01:30:24;;;;;;;4.88;1.48;;;19.70;86.50;;;;;;5136394;27;45588;-66
2022/07/07 01:32:51;;;;;;;3.80;1.45;;;19.70;86.60;;;;;;5136618;27;46073;-65
2022/07/07 01:35:18;;;;;;;8.55;1.80;;;19.60;87.00;;;;;;5146051;27;45206;-66
2022/07/07 01:37:45;;;;;;;4.40;1.45;;;19.70;87.70;;;;;;5137158;27;45356;-66
2022/07/07 01:40:13;;;;;;;5.30;1.73;;;19.60;87.80;;;;;;5138133;27;45261;-66
2022/07/07 01:42:40;;;;;;;6.55;2.58;;;19.60;88.40;;;;;;5142796;27;48248;-66
2022/07/07 01:45:08;;;;;;;3.28;1.67;;;19.70;88.90;;;;;;5141905;27;45680;-65
2022/07/07 01:47:34;;;;;;;3.75;2.00;;;19.60;89.30;;;;;;5146856;27;45263;-65
2022/07/07 01:50:01;;;;;;;7.10;2.22;;;19.60;89.80;;;;;;5138112;27;45232;-66
2022/07/07 01:52:28;;;;;;;6.28;1.98;;;19.70;90.70;;;;;;5137294;27;46317;-66
2022/07/07 01:54:55;;;;;;;13.45;2.17;;;19.60;91.40;;;;;;5134426;27;45374;-65
2022/07/07 01:57:23;;;;;;;3.60;2.00;;;19.60;91.20;;;;;;5139465;27;45510;-66
2022/07/07 01:59:50;;;;;;;4.28;2.40;;;19.60;91.30;;;;;;5137511;27;45816;-65
2022/07/07 02:02:17;;;;;;;6.38;2.28;;;19.60;91.40;;;;;;5144627;27;45284;-66
2022/07/07 02:04:43;;;;;;;6.75;1.90;;;19.60;91.20;;;;;;5146303;27;45395;-65
2022/07/07 02:07:10;;;;;;;4.60;2.08;;;19.50;91.10;;;;;;5140566;27;45401;-66
2022/07/07 02:09:37;;;;;;;5.18;1.85;;;19.60;91.40;;;;;;5136666;27;45523;-66
2022/07/07 02:12:04;;;;;;;6.45;1.90;;;19.60;91.30;;;;;;5139109;27;46284;-66
2022/07/07 02:14:33;;;;;;;8.23;1.90;;;19.60;91.20;;;;;;5130130;27;45634;-66
2022/07/07 02:17:00;;;;;;;4.30;1.80;;;19.60;91.50;;;;;;5141603;27;45443;-65
2022/07/07 02:19:26;;;;;;;3.90;2.28;;;19.50;91.50;;;;;;5140205;27;45518;-66
2022/07/07 02:21:54;;;;;;;6.25;1.98;;;19.50;91.80;;;;;;5145536;27;47838;-66
2022/07/07 02:24:20;;;;;;;5.13;1.92;;;19.50;91.80;;;;;;5146238;27;45366;-65
2022/07/07 02:26:47;;;;;;;4.05;2.00;;;19.50;91.90;;;;;;5143581;27;45390;-66
2022/07/07 02:29:14;;;;;;;3.80;2.00;;;19.50;92.00;;;;;;5141104;27;45417;-66
2022/07/07 02:31:42;;;;;;;4.20;2.13;;;19.50;92.10;;;;;;5137094;27;47350;-66
2022/07/07 02:34:09;;;;;;;5.45;2.00;;;19.50;92.20;;;;;;5129836;27;45427;-66
2022/07/07 02:36:36;;;;;;;7.00;2.40;;;19.50;92.10;;;;;;5139417;27;45544;-66
2022/07/07 02:39:03;;;;;;;9.35;2.20;;;19.50;92.10;;;;;;5139993;27;45315;-66
2022/07/07 02:41:30;;;;;;;7.63;2.15;;;19.50;92.20;;;;;;5140105;27;46416;-66
2022/07/07 02:43:57;;;;;;;4.63;1.90;;;19.50;92.20;;;;;;5132964;27;45373;-65
2022/07/07 02:46:23;;;;;;;3.33;1.75;;;19.50;92.30;;;;;;5139588;27;45466;-66
2022/07/07 02:48:52;;;;;;;5.47;2.05;;;19.40;92.10;;;;;;5143034;27;45725;-65
2022/07/07 02:51:18;;;;;;;7.68;1.55;;;19.50;92.10;;;;;;5135267;27;48451;-66
2022/07/07 02:53:45;;;;;;;6.75;2.35;;;19.50;92.10;;;;;;5142247;27;45632;-66
2022/07/07 02:56:12;;;;;;;4.90;1.92;;;19.50;92.00;;;;;;5135764;27;45326;-66
2022/07/07 02:58:39;;;;;;;3.67;1.80;;;19.50;92.30;;;;;;5141660;27;45457;-65
2022/07/07 03:01:06;;;;;;;3.50;1.83;;;19.50;92.20;;;;;;5141471;27;46306;-66
2022/07/07 03:03:32;;;;;;;2.95;1.70;;;19.50;92.50;;;;;;5134543;27;45456;-66
2022/07/07 03:06:00;;;;;;;8.23;2.50;;;19.40;92.60;;;;;;5143608;27;45390;-65
2022/07/07 03:08:27;;;;;;;8.93;2.53;;;19.40;92.90;;;;;;5133611;27;45549;-65
2022/07/07 03:10:54;;;;;;;2.35;1.70;;;19.40;93.00;;;;;;5142998;27;46187;-66
2022/07/07 03:13:21;;;;;;;4.05;1.73;;;19.40;92.70;;;;;;5143937;27;45373;-66
2022/07/07 03:15:47;;;;;;;6.72;1.90;;;19.40;93.00;;;;;;5145467;27;45269;-66
2022/07/07 03:18:14;;;;;;;5.90;2.33;;;19.30;93.60;;;;;;5139303;27;45551;-65
2022/07/07 03:20:41;;;;;;;3.97;1.65;;;19.30;93.50;;;;;;5141695;27;46544;-66
2022/07/07 03:23:09;;;;;;;2.65;1.70;;;19.30;93.80;;;;;;5130458;27;45359;-65
2022/07/07 03:25:36;;;;;;;3.03;2.22;;;19.30;93.40;;;;;;5139377;27;45291;-66
2022/07/07 03:28:02;;;;;;;7.53;2.25;;;19.30;93.50;;;;;;5140099;27;45783;-66
2022/07/07 03:30:29;;;;;;;4.45;2.03;;;19.30;93.40;;;;;;5143780;27;46429;-65
2022/07/07 03:32:56;;;;;;;5.38;2.08;;;19.30;93.60;;;;;;5139408;27;45256;-66
2022/07/07 03:35:23;;;;;;;2.28;1.67;;;19.30;93.90;;;;;;5141435;27;45508;-65
2022/07/07 03:37:50;;;;;;;4.43;1.88;;;19.20;94.10;;;;;;5136155;27;45539;-66
2022/07/07 03:40:18;;;;;;;9.30;2.33;;;19.30;93.80;;;;;;5144798;27;45273;-66
2022/07/07 03:42:45;;;;;;;4.93;2.13;;;19.20;94.00;;;;;;5141063;27;46457;-65
2022/07/07 03:45:12;;;;;;;7.32;1.95;;;19.30;94.30;;;;;;5139813;27;45412;-66
2022/07/07 03:47:39;;;;;;;3.63;1.83;;;19.20;95.40;;;;;;5144278;27;45551;-66
2022/07/07 03:50:07;;;;;;;5.30;2.17;;;19.10;96.00;;;;;;5135354;27;46303;-66
2022/07/07 03:52:33;;;;;;;4.63;2.10;;;19.00;96.00;;;;;;5137910;27;45402;-66
2022/07/07 03:55:00;;;;;;;7.55;2.40;;;19.00;96.30;;;;;;5144789;27;45587;-65
2022/07/07 03:57:28;;;;;;;4.70;2.40;;;19.00;96.70;;;;;;5142009;27;45456;-66
2022/07/07 03:59:55;;;;;;;6.68;2.38;;;18.90;97.10;;;;;;5138309;27;47413;-65
2022/07/07 04:02:22;;;;;;;8.43;2.30;;;19.00;97.60;;;;;;5137628;27;45440;-66
2022/07/07 04:04:48;;;;;;;4.40;2.10;;;19.00;97.50;;;;;;5135434;27;45440;-66
2022/07/07 04:07:15;;;;;;;8.45;2.33;;;19.00;97.00;;;;;;5141917;27;45305;-66
2022/07/07 04:09:42;;;;;;;4.43;2.08;;;19.00;97.50;;;;;;5141983;27;48041;-66
2022/07/07 04:12:10;;;;;;;13.38;2.15;;;19.00;97.60;;;;;;5132094;27;45365;-66
2022/07/07 04:14:38;;;;;;;3.55;1.75;;;19.00;97.20;;;;;;5143727;27;45326;-66
2022/07/07 04:17:05;;;;;;;3.63;1.70;;;19.10;97.40;;;;;;5139710;27;45599;-66
2022/07/07 04:19:32;;;;;;;4.07;2.10;;;19.10;97.10;;;;;;5143112;27;47074;-65
2022/07/07 04:21:59;;;;;;;6.82;2.00;;;19.20;96.90;;;;;;5132777;27;45524;-66
2022/07/07 04:24:26;;;;;;;3.63;2.00;;;19.10;96.90;;;;;;5134473;27;45377;-66
2022/07/07 04:26:53;;;;;;;3.85;2.05;;;19.10;97.20;;;;;;5134711;27;45535;-66
2022/07/07 04:29:20;;;;;;;5.32;2.17;;;19.10;97.10;;;;;;5130331;27;47526;-66
2022/07/07 04:31:48;;;;;;;3.63;1.95;;;19.10;97.10;;;;;;5132817;27;45236;-66
2022/07/07 04:34:15;;;;;;;6.55;1.88;;;19.20;96.90;;;;;;5135998;27;45348;-65
2022/07/07 04:36:42;;;;;;;5.22;1.83;;;19.20;97.00;;;;;;5139641;27;45424;-66
2022/07/07 04:39:09;;;;;;;8.05;2.95;;;19.20;97.20;;;;;;5137554;27;46346;-67
2022/07/07 04:41:36;;;;;;;6.15;1.80;;;19.10;97.00;;;;;;5133641;27;45477;-66
2022/07/07 04:44:03;;;;;;;4.32;1.50;;;19.20;97.10;;;;;;5142487;27;45329;-66
2022/07/07 04:46:32;;;;;;;6.00;1.83;;;19.10;97.20;;;;;;5132717;27;45617;-66
2022/07/07 04:49:00;;;;;;;4.18;1.70;;;19.10;97.20;;;;;;5138642;27;46579;-66
2022/07/07 04:51:27;;;;;;;5.57;1.85;;;19.20;97.30;;;;;;5141267;27;45430;-66
2022/07/07 04:53:54;;;;;;;4.78;1.73;;;19.20;97.10;;;;;;5140605;27;45368;-65
2022/07/07 04:56:21;;;;;;;5.85;1.80;;;19.20;96.80;;;;;;5139061;27;45559;-66
2022/07/07 04:58:47;;;;;;;3.15;1.80;;;19.20;96.80;;;;;;5140166;27;46649;-66
2022/07/07 05:01:14;;;;;;;4.70;1.77;;;19.20;97.50;;;;;;5136802;27;45298;-66
2022/07/07 05:03:41;;;;;;;4.60;1.70;;;19.20;97.50;;;;;;5143081;27;45535;-66
2022/07/07 05:06:10;;;;;;;6.57;1.98;;;19.10;98.40;;;;;;5135188;27;45422;-65
2022/07/07 05:08:37;;;;;;;7.90;2.22;;;19.10;98.30;;;;;;5136123;27;46293;-66
2022/07/07 05:11:04;;;;;;;4.68;1.80;;;19.00;99.90;;;;;;5128814;27;45240;-66
2022/07/07 05:13:31;;;;;;;9.80;2.08;;;18.80;99.90;;;;;;5136777;27;45295;-66
2022/07/07 05:15:58;;;;;;;5.38;1.90;;;18.60;99.90;;;;;;5143377;27;45350;-66
2022/07/07 05:18:25;;;;;;;3.58;2.08;;;18.60;99.90;;;;;;5135368;27;47088;-66
2022/07/07 05:20:52;;;;;;;8.07;2.35;;;18.60;99.90;;;;;;5131766;27;45540;-66
2022/07/07 05:23:20;;;;;;;6.40;2.60;;;18.40;99.90;;;;;;5134842;27;45347;-66
2022/07/07 05:25:46;;;;;;;16.27;3.58;;;18.30;99.90;;;;;;5137569;27;45668;-66
2022/07/07 05:28:13;;;;;;;4.03;2.10;;;18.10;99.90;;;;;;5137214;27;46421;-66
2022/07/07 05:30:40;;;;;;;4.28;2.15;;;17.90;99.90;;;;;;5135034;27;45351;-66
2022/07/07 05:33:07;;;;;;;5.90;1.65;;;17.50;99.90;;;;;;5142535;27;45331;-66
2022/07/07 05:35:35;;;;;;;3.90;1.67;;;17.40;99.90;;;;;;5137475;27;45434;-65
2022/07/07 05:38:02;;;;;;;4.78;2.30;;;17.50;99.90;;;;;;5142330;27;45413;-66
2022/07/07 05:40:30;;;;;;;4.72;2.00;;;17.70;99.90;;;;;;5141371;27;45744;-66
2022/07/07 05:42:57;;;;;;;5.70;2.10;;;17.70;99.90;;;;;;5139172;27;45412;-66
2022/07/07 05:45:24;;;;;;;3.83;2.00;;;17.80;99.90;;;;;;5138198;27;45460;-66
2022/07/07 05:47:51;;;;;;;4.35;2.03;;;18.00;99.90;;;;;;5139337;27;45399;-66
2022/07/07 05:50:18;;;;;;;6.65;2.47;;;18.10;99.90;;;;;;5145869;27;45481;-66
2022/07/07 05:52:45;;;;;;;3.10;1.65;;;18.10;99.90;;;;;;5139695;27;45478;-66
2022/07/07 05:55:12;;;;;;;3.75;1.85;;;18.20;99.90;;;;;;5130120;27;45377;-66
2022/07/07 05:57:40;;;;;;;2.95;1.80;;;18.00;99.90;;;;;;5139539;27;46708;-65
2022/07/07 06:00:08;;;;;;;5.32;1.67;;;18.00;99.90;;;;;;5137092;27;45502;-66
2022/07/07 06:02:35;;;;;;;3.38;1.80;;;18.20;99.90;;;;;;5136665;27;45430;-66
2022/07/07 06:05:02;;;;;;;3.47;1.50;;;18.20;99.90;;;;;;5136366;27;45491;-66
2022/07/07 06:07:29;;;;;;;2.97;1.50;;;18.20;99.90;;;;;;5135459;27;46343;-66
2022/07/07 06:09:56;;;;;;;2.42;1.50;;;18.10;99.90;;;;;;5143014;27;45384;-66
2022/07/07 06:12:22;;;;;;;2.78;1.77;;;18.10;99.90;;;;;;5135713;27;45686;-66
2022/07/07 06:14:50;;;;;;;1.77;1.50;;;18.10;99.90;;;;;;5138537;27;45329;-65
2022/07/07 06:17:17;;;;;;;1.92;1.35;;;18.20;99.90;;;;;;5124228;27;46237;-65
2022/07/07 06:19:44;;;;;;;3.03;1.50;;;18.20;99.90;;;;;;5138893;27;45337;-66
2022/07/07 06:22:11;;;;;;;3.70;1.95;;;18.20;99.90;;;;;;5139056;27;45249;-66
2022/07/07 06:24:38;;;;;;;7.32;1.73;;;18.30;99.90;;;;;;5132938;27;45411;-66
2022/07/07 06:27:05;;;;;;;3.40;1.65;;;18.30;99.90;;;;;;5136776;27;46860;-66
2022/07/07 06:29:32;;;;;;;2.67;1.60;;;18.20;99.90;;;;;;5135902;27;45732;-65
2022/07/07 06:32:00;;;;;;;2.42;1.70;;;18.20;99.90;;;;;;5146119;27;45255;-66
2022/07/07 06:34:27;;;;;;;2.90;1.50;;;18.10;99.90;;;;;;5142631;27;45424;-66
2022/07/07 06:36:54;;;;;;;3.70;1.40;;;18.10;99.90;;;;;;5134100;27;47008;-65
2022/07/07 06:39:20;;;;;;;4.90;1.80;;;18.00;99.90;;;;;;5142789;27;45546;-65
2022/07/07 06:41:47;;;;;;;3.95;1.88;;;18.00;99.90;;;;;;5141405;27;45318;-65
2022/07/07 06:44:14;;;;;;;2.92;1.73;;;17.90;99.90;;;;;;5133477;27;45383;-65
2022/07/07 06:46:41;;;;;;;5.97;2.00;;;17.80;99.90;;;;;;5143782;27;46698;-65
2022/07/07 06:49:09;;;;;;;3.50;1.17;;;17.80;99.90;;;;;;5136193;27;45332;-66
2022/07/07 06:51:36;;;;;;;2.15;1.15;;;17.70;99.90;;;;;;5136150;27;45387;-66
2022/07/07 06:54:03;;;;;;;3.20;1.67;;;17.70;99.90;;;;;;5141166;27;45513;-66
2022/07/07 06:56:30;;;;;;;1.48;1.20;;;17.80;99.90;;;;;;5129684;27;46612;-66
2022/07/07 06:58:57;;;;;;;3.05;1.20;;;17.80;99.90;;;;;;5145973;27;45296;-66
2022/07/07 07:01:23;;;;;;;7.05;1.40;;;18.00;99.90;;;;;;5143639;27;45449;-66
2022/07/07 07:03:50;;;;;;;3.45;1.20;;;17.90;99.90;;;;;;5146120;27;45264;-66
2022/07/07 07:06:19;;;;;;;3.67;1.30;;;17.90;99.90;;;;;;5128418;27;47553;-67
2022/07/07 07:08:47;;;;;;;2.13;1.38;;;17.80;99.90;;;;;;5128004;27;45948;-65
2022/07/07 07:11:14;;;;;;;3.90;1.77;;;17.90;99.90;;;;;;5127499;27;45404;-65
2022/07/07 07:13:41;;;;;;;1.30;1.00;;;18.00;99.90;;;;;;5138323;27;45764;-66
2022/07/07 07:16:08;;;;;;;2.08;1.20;;;18.20;99.90;;;;;;5129671;27;48075;-66
2022/07/07 07:18:35;;;;;;;2.45;1.15;;;18.00;99.90;;;;;;5130593;27;45342;-65
2022/07/07 07:21:01;;;;;;;2.08;1.08;;;17.80;99.90;;;;;;5133945;27;45499;-65
2022/07/07 07:23:30;;;;;;;5.07;1.27;;;17.90;99.90;;;;;;5127831;27;45547;-66
2022/07/07 07:25:56;;;;;;;4.10;1.50;;;18.00;99.90;;;;;;5137073;27;46677;-66
2022/07/07 07:28:23;;;;;;;4.15;1.33;;;17.90;99.90;;;;;;5125760;27;45516;-66
2022/07/07 07:30:50;;;;;;;5.78;1.50;;;17.90;99.90;;;;;;5127710;27;45359;-66
2022/07/07 07:33:17;;;;;;;3.63;1.45;;;17.80;99.90;;;;;;5134146;27;45668;-66
2022/07/07 07:35:44;;;;;;;3.20;1.08;;;17.30;99.90;;;;;;5132070;27;47967;-65
2022/07/07 07:38:11;;;;;;;4.75;1.02;;;16.60;99.90;;;;;;5132833;27;45291;-65
2022/07/07 07:40:40;;;;;;;6.65;1.00;;;15.90;99.90;;;;;;5139003;27;45298;-66
2022/07/07 07:43:06;;;;;;;1.67;1.00;;;15.60;99.90;;;;;;5133584;27;45574;-65
2022/07/07 07:45:33;;;;;;;1.85;0.70;;;15.40;99.90;;;;;;5137377;27;48087;-65
2022/07/07 07:48:01;;;;;;;2.78;1.20;;;15.50;99.90;;;;;;5142931;27;45274;-66
2022/07/07 07:50:29;;;;;;;4.03;2.17;;;15.70;99.90;;;;;;5128529;27;45499;-66
2022/07/07 07:52:56;;;;;;;7.38;1.92;;;16.00;99.90;;;;;;5136871;27;45301;-65
2022/07/07 07:55:24;;;;;;;4.43;1.52;;;16.20;99.90;;;;;;5134207;27;45637;-65
2022/07/07 07:57:53;;;;;;;6.00;1.48;;;16.20;99.90;;;;;;5133960;27;45452;-64
2022/07/07 08:00:22;;;;;;;1.75;1.25;;;16.30;99.90;;;;;;5130574;27;45472;-65
2022/07/07 08:02:49;;;;;;;6.63;1.77;;;16.20;99.90;;;;;;5130797;27;45713;-65
2022/07/07 08:05:17;;;;;;;4.75;1.48;;;16.10;99.90;;;;;;5135243;27;47490;-66
2022/07/07 08:07:44;;;;;;;4.90;1.38;;;16.10;99.90;;;;;;5132887;27;45285;-65
2022/07/07 08:10:12;;;;;;;6.30;1.55;;;16.20;99.90;;;;;;5140738;27;45491;-65
2022/07/07 08:12:40;;;;;;;5.07;1.50;;;16.20;99.90;;;;;;5137536;27;45367;-65
2022/07/07 08:15:09;;;;;;;4.35;1.52;;;16.30;99.90;;;;;;5133944;27;46587;-65
2022/07/07 08:17:37;;;;;;;9.05;1.83;;;16.60;99.90;;;;;;5142296;27;45709;-65
2022/07/07 08:20:04;;;;;;;5.68;1.52;;;17.00;99.90;;;;;;5139278;27;45532;-64
2022/07/07 08:22:31;;;;;;;6.97;1.55;;;17.20;99.90;;;;;;5141064;27;45370;-65
2022/07/07 08:24:58;;;;;;;5.18;1.05;;;17.20;99.90;;;;;;5133306;27;46605;-65
2022/07/07 08:27:25;;;;;;;7.57;1.50;;;17.10;99.90;;;;;;5130310;27;45320;-65
2022/07/07 08:29:51;;;;;;;6.97;1.27;;;17.10;99.90;;;;;;5131280;27;45329;-65
2022/07/07 08:32:20;;;;;;;7.18;1.52;;;17.20;99.90;;;;;;5143666;27;45331;-65
2022/07/07 08:34:46;;;;;;;6.90;1.42;;;16.80;99.90;;;;;;5132236;27;48064;-65
2022/07/07 08:37:13;;;;;;;5.05;1.42;;;16.80;99.90;;;;;;5128819;27;45355;-65
2022/07/07 08:39:40;;;;;;;6.35;1.00;;;16.80;99.90;;;;;;5132938;27;45357;-65
2022/07/07 08:42:08;;;;;;;2.38;0.63;;;16.90;99.90;;;;;;5128701;27;45559;-65
2022/07/07 08:44:35;;;;;;;4.43;0.73;;;16.80;99.90;;;;;;5130620;27;46148;-65
2022/07/07 08:47:02;;;;;;;6.70;1.23;;;16.90;99.90;;;;;;5130977;27;45784;-65
2022/07/07 08:49:31;;;;;;;4.75;1.20;;;16.90;99.90;;;;;;5129789;27;45569;-65
2022/07/07 08:51:58;;;;;;;7.35;1.00;;;16.90;99.90;;;;;;5137663;27;45626;-66
2022/07/07 08:54:27;;;;;;;6.43;1.30;;;16.90;99.90;;;;;;5127941;27;46258;-65
2022/07/07 08:56:55;;;;;;;8.60;1.35;;;17.00;99.90;;;;;;5140406;27;45381;-65
2022/07/07 08:59:22;;;;;;;3.30;0.88;;;17.10;99.90;;;;;;5143404;27;45565;-65
2022/07/07 09:01:56;;;;;;;3.22;0.77;;;17.30;99.90;;;;;;5136556;27;45330;-66
2022/07/07 09:04:23;;;;;;;3.60;1.10;;;17.30;99.90;;;;;;5129128;27;47530;-65
2022/07/07 09:06:55;;;;;;;3.70;0.90;;;17.30;99.90;;;;;;5133644;27;45454;-64
2022/07/07 09:09:38;;;;;;;3.65;0.82;;;17.30;99.90;;;;;;5130404;27;45591;-65
2022/07/07 09:12:06;;;;;;;4.38;0.85;;;17.20;99.90;;;;;;5130416;27;45540;-65
2022/07/07 09:14:36;;;;;;;4.75;0.88;;;17.20;99.90;;;;;;5137047;27;45363;-64
2022/07/07 09:17:04;;;;;;;6.28;1.00;;;17.20;99.90;;;;;;5144224;27;45421;-64
2022/07/07 09:19:30;;;;;;;5.68;1.10;;;17.20;99.90;;;;;;5124872;27;45278;-64
2022/07/07 09:21:59;;;;;;;2.70;0.68;;;17.10;99.90;;;;;;5134664;27;45380;-65
2022/07/07 09:24:25;;;;;;;4.15;0.80;;;17.10;99.90;;;;;;5138716;27;46493;-64
2022/07/07 09:26:55;;;;;;;4.00;0.90;;;17.20;99.90;;;;;;5137034;27;45329;-64
2022/07/07 09:29:23;;;;;;;3.08;0.65;;;17.30;99.90;;;;;;5127554;27;45483;-65
2022/07/07 09:31:58;;;;;;;1.77;0.68;;;17.30;99.90;;;;;;5133016;27;45300;-64
2022/07/07 09:34:27;;;;;;;2.85;0.77;;;17.40;99.90;;;;;;5134784;27;45433;-64
2022/07/07 09:39:42;;;;;;;7.75;1.60;;;17.40;99.90;;;;;;5138616;27;45482;-64
2022/07/07 09:42:19;;;;;;;4.10;0.85;;;17.50;99.90;;;;;;5136130;27;45503;-65
2022/07/07 09:44:47;;;;;;;4.43;0.75;;;17.70;99.90;;;;;;5126039;27;47646;-65
2022/07/07 09:47:14;;;;;;;4.32;1.02;;;17.70;99.90;;;;;;5130164;27;45797;-65
2022/07/07 09:49:43;;;;;;;1.42;0.38;;;18.10;99.90;;;;;;5122427;27;45528;-64
2022/07/07 09:52:16;;;;;;;4.72;0.80;;;18.10;99.90;;;;;;5131477;27;45393;-65
2022/07/07 09:54:49;;;;;;;2.60;0.82;;;18.10;99.90;;;;;;5137882;27;46482;-64
2022/07/07 09:57:16;;;;;;;3.50;0.80;;;18.10;99.90;;;;;;5137408;27;45319;-64
2022/07/07 09:59:43;;;;;;;4.55;0.95;;;18.20;99.90;;;;;;5127540;27;45513;-65
2022/07/07 10:02:18;;;;;;;5.68;1.05;;;18.50;99.90;;;;;;5124727;27;45631;-64
2022/07/07 10:04:47;;;;;;;4.20;0.90;;;18.20;99.90;;;;;;5129882;27;46179;-66
2022/07/07 10:07:15;;;;;;;8.48;0.80;;;18.60;99.90;;;;;;5125475;27;45464;-64
2022/07/07 10:09:44;;;;;;;3.92;1.02;;;18.60;99.90;;;;;;5128734;27;45389;-65
2022/07/07 10:12:16;;;;;;;3.65;0.93;;;18.20;99.90;;;;;;5132877;27;45431;-64
2022/07/07 10:14:44;;;;;;;3.90;0.90;;;18.10;99.90;;;;;;5138868;27;46241;-64
2022/07/07 10:17:12;;;;;;;3.72;0.85;;;18.10;99.90;;;;;;5126767;27;45398;-65
2022/07/07 10:19:39;;;;;;;4.28;0.80;;;18.30;99.90;;;;;;5131508;27;45479;-65
2022/07/07 10:22:07;;;;;;;5.88;1.13;;;18.30;99.90;;;;;;5127569;27;45340;-65
2022/07/07 10:24:35;;;;;;;1.58;0.82;;;18.50;99.90;;;;;;5136898;27;45747;-64
2022/07/07 10:27:03;;;;;;;4.00;0.60;;;18.70;99.90;;;;;;5126060;27;45341;-64
2022/07/07 10:29:41;;;;;;;4.57;0.70;;;18.90;99.90;;;;;;5129815;27;45313;-65
2022/07/07 10:32:09;;;;;;;3.97;0.70;;;19.10;99.90;;;;;;5122837;27;45768;-65
2022/07/07 10:34:38;;;;;;;3.08;0.60;;;19.30;99.90;;;;;;5124616;27;46238;-65
2022/07/07 10:37:09;;;;;;;2.63;0.68;;;19.30;99.90;;;;;;5130190;27;45478;-66
2022/07/07 10:39:42;;;;;;;3.88;0.75;;;19.30;99.90;;;;;;5130567;27;45672;-65
2022/07/07 10:42:22;;;;;;;5.65;0.98;;;19.40;99.90;;;;;;5124673;27;45457;-65
2022/07/07 10:44:53;;;;;;;5.60;0.70;;;19.40;99.90;;;;;;5127354;27;47108;-65
2022/07/07 10:47:33;;;;;;;3.05;0.80;;;19.30;99.90;;;;;;5128756;27;46066;-64
2022/07/07 10:50:01;;;;;;;3.53;1.17;;;19.10;99.90;;;;;;5128408;27;45581;-64
2022/07/07 10:52:39;;;;;;;4.72;1.05;;;18.30;99.90;;;;;;5134877;27;45659;-65
2022/07/07 10:55:06;;;;;;;7.68;1.10;;;17.90;99.90;;;;;;5125395;27;46360;-64
2022/07/07 10:57:41;;;;;;;5.38;1.00;;;17.70;99.90;;;;;;5128990;27;45494;-66
2022/07/07 11:00:12;;;;;;;3.33;0.80;;;17.80;99.90;;;;;;5124275;27;45372;-66
2022/07/07 11:02:42;;;;;;;2.72;0.80;;;17.80;99.90;;;;;;5125480;27;45547;-65
2022/07/07 11:05:32;;;;;;;5.35;1.05;;;18.00;99.90;;;;;;5131000;27;46565;-66
2022/07/07 11:08:13;;;;;;;4.90;1.15;;;18.20;99.90;;;;;;5133670;27;45378;-64
2022/07/07 11:11:01;;;;;;;1.80;1.05;;;18.40;99.90;;;;;;5130598;27;45532;-63
2022/07/07 11:13:33;;;;;;;7.97;1.10;;;18.50;99.90;;;;;;5130033;27;45529;-63
2022/07/07 11:16:17;;;;;;;3.05;1.08;;;18.80;99.90;;;;;;5137116;27;46502;-63
2022/07/07 11:18:49;;;;;;;3.15;1.00;;;18.80;99.90;;;;;;5142927;27;45620;-64
2022/07/07 11:21:15;;;;;;;4.38;1.00;;;19.00;99.90;;;;;;5128643;27;45345;-63
2022/07/07 11:23:47;;;;;;;2.75;0.82;;;19.20;99.90;;;;;;5140528;27;45409;-63
2022/07/07 11:26:16;;;;;;;1.88;0.88;;;19.30;99.90;;;;;;5143641;27;46413;-63
2022/07/07 11:28:42;;;;;;;4.57;0.80;;;19.40;99.90;;;;;;5134358;27;45440;-63
2022/07/07 11:31:10;;;;;;;1.65;0.70;;;19.40;99.90;;;;;;5136594;27;45257;-64
2022/07/07 11:33:39;;;;;;;10.52;1.20;;;19.30;99.90;;;;;;5139618;27;45255;-63
2022/07/07 11:36:11;;;;;;;5.70;0.60;;;19.30;99.90;;;;;;5127067;27;48263;-63
2022/07/07 11:38:38;;;;;;;2.53;0.70;;;19.40;99.90;;;;;;5135730;27;45439;-63
2022/07/07 11:41:05;;;;;;;4.60;1.08;;;19.50;99.90;;;;;;5140182;27;45203;-63
2022/07/07 11:43:33;;;;;;;8.02;0.90;;;19.40;99.90;;;;;;5132626;27;45746;-63
2022/07/07 11:46:00;;;;;;;5.55;0.75;;;19.30;99.90;;;;;;5137008;27;45506;-63
2022/07/07 11:48:34;;;;;;;3.53;0.75;;;19.30;99.90;;;;;;5136652;27;45566;-63
2022/07/07 11:51:02;;;;;;;6.03;0.80;;;19.30;99.90;;;;;;5137560;27;45432;-64
2022/07/07 11:53:29;;;;;;;2.75;0.95;;;19.40;99.90;;;;;;5127608;27;45464;-63
2022/07/07 11:55:56;;;;;;;2.33;0.73;;;19.40;99.90;;;;;;5135650;27;45418;-63
2022/07/07 11:58:23;;;;;;;4.32;0.80;;;19.60;99.90;;;;;;5136135;27;45423;-63
2022/07/07 12:00:54;;;;;;;5.05;0.88;;;19.60;99.90;;;;;;5130060;27;45308;-63
2022/07/07 12:03:28;;;;;;;5.88;1.30;;;19.60;99.90;;;;;;5129507;27;45770;-63
2022/07/07 12:05:55;;;;;;;7.53;1.15;;;19.60;99.90;;;;;;5138536;27;46264;-63
2022/07/07 12:08:33;;;;;;;6.70;0.85;;;19.50;99.90;;;;;;5133661;27;45435;-64
2022/07/07 12:11:00;;;;;;;2.13;0.82;;;19.50;99.90;;;;;;5134306;27;45371;-63
2022/07/07 12:13:27;;;;;;;6.30;1.13;;;19.50;99.90;;;;;;5138359;27;45575;-63
2022/07/07 12:15:55;;;;;;;4.45;1.20;;;19.50;99.90;;;;;;5135098;27;45482;-64
2022/07/07 12:18:32;;;;;;;4.03;1.20;;;19.40;99.90;;;;;;5137600;27;45336;-63
2022/07/07 12:21:00;;;;;;;4.38;0.82;;;19.30;99.90;;;;;;5121661;27;45283;-63
2022/07/07 12:23:29;;;;;;;4.78;0.90;;;19.30;99.90;;;;;;5127521;27;45366;-63
2022/07/07 12:26:07;;;;;;;5.85;0.93;;;19.30;99.90;;;;;;5148192;27;47453;-63
2022/07/07 12:28:35;;;;;;;2.90;0.93;;;19.30;99.90;;;;;;5147893;27;45570;-63
2022/07/07 12:31:03;;;;;;;1.60;0.60;;;19.50;99.90;;;;;;5128249;27;45428;-63
2022/07/07 12:33:33;;;;;;;5.13;1.02;;;19.70;99.90;;;;;;5126901;27;45334;-63
2022/07/07 12:36:07;;;;;;;5.72;0.90;;;19.60;99.90;;;;;;5127426;27;47358;-63
2022/07/07 12:38:40;;;;;;;3.00;1.25;;;19.60;99.90;;;;;;5127066;27;45472;-63
2022/07/07 12:41:07;;;;;;;4.10;0.98;;;19.50;99.90;;;;;;5135391;27;45309;-63
2022/07/07 12:43:36;;;;;;;4.18;0.68;;;19.40;99.90;;;;;;5134799;27;45483;-63
2022/07/07 12:46:10;;;;;;;3.15;0.75;;;19.20;99.90;;;;;;5136019;27;46094;-64
2022/07/07 12:48:45;;;;;;;0.93;0.57;;;19.10;99.90;;;;;;5128122;27;45462;-63
2022/07/07 12:51:12;;;;;;;3.72;0.73;;;19.20;99.90;;;;;;5136394;27;45360;-63
2022/07/07 12:53:42;;;;;;;2.25;0.70;;;19.10;99.90;;;;;;5128552;27;45415;-64